Terminal Aerodrome Forecast
Issued by NWS

Home | Current Version | Previous Version | Text Only | Print | Product List | Glossary On
Versions: 1 2 3 4 5 6 7 8 9 10 11 12 13 14 15 16 17 18 19 20 21 22 23
000
FTUS45 KABQ 212300
TAFFMN
TAF
KFMN 212320Z 2200/2224 28010KT P6SM FEW040 BKN120
     FM220200 30007KT P6SM SCT030 BKN120
     FM220800 VRB06KT P6SM SCT025 BKN050
     FM221000 30007KT P6SM VCSH BKN025 OVC050
      TEMPO 2213/2216 5SM BR
     FM221800 29020G30KT P6SM VCSH BKN040 BKN090=

USA.gov is the U.S. government's official web portal to all federal, state and local government web resources and services.